Time;durP1;ratioP1;P1;durP2;ratioP2;P2;SDS_P1;SDS_P2;PMS_P1;PMS_P2;Temp;Humidity;BMP_temperature;BMP_pressure;BME280_temperature;BME280_humidity;BME280_pressure;Samples;Min_cycle;Max_cycle;Signal;HPM_P1;HPM_P2
2021/06/28 00:01:29;;;;;;;6.75;5.93;;;20.20;98.80;;;;;;5043418;28;20335;-84
2021/06/28 00:03:54;;;;;;;7.20;6.18;;;20.20;98.80;;;;;;5062911;28;20025;-84
2021/06/28 00:06:20;;;;;;;6.85;6.15;;;20.10;98.80;;;;;;5024832;28;20381;-84
2021/06/28 00:08:52;;;;;;;6.50;5.80;;;20.10;98.70;;;;;;5030370;28;20453;-84
2021/06/28 00:11:19;;;;;;;6.05;5.38;;;20.10;98.80;;;;;;5020038;28;20119;-84
2021/06/28 00:13:45;;;;;;;7.63;6.63;;;20.10;98.80;;;;;;5064074;28;20358;-84
2021/06/28 00:16:13;;;;;;;6.70;5.57;;;20.10;98.80;;;;;;5042982;28;20025;-83
2021/06/28 00:18:39;;;;;;;7.05;5.60;;;20.10;98.80;;;;;;5049786;28;20040;-84
2021/06/28 00:21:06;;;;;;;8.23;5.70;;;20.00;98.80;;;;;;5017809;28;20078;-84
2021/06/28 00:23:32;;;;;;;6.22;5.55;;;20.00;98.80;;;;;;5056825;28;20079;-84
2021/06/28 00:25:59;;;;;;;6.38;5.65;;;20.00;98.80;;;;;;5025190;28;20514;-84
2021/06/28 00:28:24;;;;;;;7.07;6.22;;;20.00;98.90;;;;;;5041022;28;20037;-84
2021/06/28 00:30:51;;;;;;;7.28;5.88;;;19.90;98.80;;;;;;5023328;28;20089;-84
2021/06/28 00:33:19;;;;;;;7.22;6.13;;;19.90;98.80;;;;;;5017212;28;20041;-84
2021/06/28 00:35:46;;;;;;;6.95;5.95;;;19.90;98.90;;;;;;5053457;28;20029;-84
2021/06/28 00:38:13;;;;;;;8.90;6.78;;;19.90;98.80;;;;;;5040068;28;20032;-84
2021/06/28 00:40:39;;;;;;;7.22;6.40;;;19.90;98.90;;;;;;5040060;28;20090;-84
2021/06/28 00:43:06;;;;;;;7.40;6.30;;;19.90;98.90;;;;;;5028936;28;20017;-84
2021/06/28 00:45:34;;;;;;;6.43;5.72;;;19.90;98.90;;;;;;5041464;28;20013;-84
2021/06/28 00:48:04;;;;;;;7.90;6.65;;;19.90;98.90;;;;;;5043794;28;20347;-84
2021/06/28 00:50:32;;;;;;;6.88;6.07;;;19.80;98.90;;;;;;5056334;28;20090;-84
2021/06/28 00:53:10;;;;;;;6.38;5.68;;;19.80;98.90;;;;;;5022759;28;20100;-84
2021/06/28 00:55:37;;;;;;;7.20;6.50;;;19.80;98.80;;;;;;5036320;28;20033;-84
2021/06/28 00:58:04;;;;;;;6.93;6.22;;;19.80;99.00;;;;;;5042269;28;20115;-83
2021/06/28 01:00:30;;;;;;;7.10;6.40;;;19.70;98.90;;;;;;5036495;28;20041;-84
2021/06/28 01:02:56;;;;;;;7.15;6.45;;;19.70;98.90;;;;;;5019584;28;20029;-84
2021/06/28 01:05:25;;;;;;;7.20;6.45;;;19.70;98.90;;;;;;5019660;28;20123;-84
2021/06/28 01:07:51;;;;;;;8.60;6.45;;;19.70;98.90;;;;;;5036025;28;20115;-84
2021/06/28 01:10:19;;;;;;;7.47;6.28;;;19.70;99.00;;;;;;5007847;28;20137;-84
2021/06/28 01:12:47;;;;;;;7.70;6.90;;;19.70;99.00;;;;;;5026354;28;20144;-84
2021/06/28 01:15:13;;;;;;;8.18;7.20;;;19.70;99.00;;;;;;5025371;28;20112;-84
2021/06/28 01:17:40;;;;;;;8.40;7.47;;;19.60;99.00;;;;;;5004036;28;20140;-84
2021/06/28 01:20:09;;;;;;;7.68;6.90;;;19.60;99.00;;;;;;5019568;28;20112;-84
2021/06/28 01:22:37;;;;;;;8.00;6.95;;;19.60;99.00;;;;;;5049140;28;20029;-84
2021/06/28 01:25:05;;;;;;;7.40;6.43;;;19.60;99.10;;;;;;5021802;28;20075;-84
2021/06/28 01:27:31;;;;;;;7.78;6.97;;;19.60;99.00;;;;;;5035753;28;20171;-84
2021/06/28 01:29:57;;;;;;;9.90;7.43;;;19.60;99.00;;;;;;4987024;28;20125;-84
2021/06/28 01:32:24;;;;;;;9.50;7.22;;;19.60;99.10;;;;;;5012670;28;20120;-84
2021/06/28 01:34:49;;;;;;;7.68;6.90;;;19.60;99.10;;;;;;5010232;28;20402;-84
2021/06/28 01:37:19;;;;;;;8.85;7.90;;;19.50;99.10;;;;;;5005105;28;20017;-84
2021/06/28 01:39:47;;;;;;;8.90;7.43;;;19.50;99.10;;;;;;5035538;28;20116;-84
2021/06/28 01:42:14;;;;;;;9.88;7.55;;;19.50;99.10;;;;;;5019020;28;20072;-84
2021/06/28 01:44:40;;;;;;;8.65;7.75;;;19.50;99.10;;;;;;5035476;28;20029;-84
2021/06/28 01:47:05;;;;;;;9.90;7.43;;;19.50;99.10;;;;;;5018919;28;20040;-84
2021/06/28 01:49:31;;;;;;;8.88;7.60;;;19.50;99.20;;;;;;5053058;28;20016;-84
2021/06/28 01:51:57;;;;;;;8.90;7.65;;;19.40;99.10;;;;;;5041874;28;20033;-84
2021/06/28 01:54:22;;;;;;;9.73;8.63;;;19.40;99.10;;;;;;5012869;28;20025;-84
2021/06/28 01:56:48;;;;;;;9.43;8.02;;;19.40;99.20;;;;;;4999045;28;20494;-84
2021/06/28 01:59:14;;;;;;;9.32;8.32;;;19.40;99.20;;;;;;5021800;28;20110;-84
2021/06/28 02:01:39;;;;;;;10.23;8.27;;;19.40;99.20;;;;;;5018554;28;20057;-84
2021/06/28 02:04:06;;;;;;;9.70;7.95;;;19.40;99.20;;;;;;5002294;28;20462;-84
2021/06/28 02:06:31;;;;;;;8.63;7.72;;;19.40;99.20;;;;;;5066331;28;20020;-84
2021/06/28 02:08:57;;;;;;;9.98;8.43;;;19.40;99.20;;;;;;5018115;28;20029;-85
2021/06/28 02:11:23;;;;;;;8.88;7.97;;;19.40;99.20;;;;;;5038298;28;20013;-84
2021/06/28 02:13:48;;;;;;;9.00;8.13;;;19.30;99.10;;;;;;5029026;28;20033;-85
2021/06/28 02:16:14;;;;;;;9.68;8.68;;;19.30;99.20;;;;;;5017715;28;20032;-84
2021/06/28 02:18:40;;;;;;;8.82;7.93;;;19.30;99.20;;;;;;5030953;28;20474;-84
2021/06/28 02:21:07;;;;;;;10.10;8.45;;;19.30;99.10;;;;;;5031494;28;20050;-84
2021/06/28 02:23:35;;;;;;;10.05;8.02;;;19.30;99.20;;;;;;5036656;28;20028;-83
2021/06/28 02:26:04;;;;;;;9.60;8.07;;;19.20;99.20;;;;;;5054603;28;20085;-84
2021/06/28 02:28:35;;;;;;;10.15;8.50;;;19.30;99.20;;;;;;5054498;28;20415;-84
2021/06/28 02:31:04;;;;;;;9.77;8.38;;;19.30;99.20;;;;;;5061935;28;20021;-84
2021/06/28 02:33:29;;;;;;;10.77;8.43;;;19.20;99.20;;;;;;5020560;28;20064;-84
2021/06/28 02:35:55;;;;;;;9.57;8.57;;;19.20;99.20;;;;;;5063999;28;20110;-84
2021/06/28 02:38:22;;;;;;;8.77;7.88;;;19.20;99.20;;;;;;5034340;28;20039;-85
2021/06/28 02:40:47;;;;;;;9.27;8.30;;;19.20;99.20;;;;;;5040642;28;20462;-85
2021/06/28 02:43:13;;;;;;;9.35;8.32;;;19.20;99.20;;;;;;5041881;28;20083;-85
2021/06/28 02:45:39;;;;;;;9.02;8.13;;;19.10;99.30;;;;;;5033978;28;20091;-85
2021/06/28 02:48:06;;;;;;;9.18;8.18;;;19.20;99.20;;;;;;5017830;28;20475;-85
2021/06/28 02:50:32;;;;;;;9.23;7.95;;;19.20;99.30;;;;;;5019741;28;20086;-85
2021/06/28 02:52:57;;;;;;;9.18;8.25;;;19.10;99.30;;;;;;5045133;28;20029;-84
2021/06/28 02:55:23;;;;;;;9.15;8.25;;;19.10;99.20;;;;;;5033932;28;20029;-85
2021/06/28 03:00:23;;;;;;;9.18;8.25;;;19.10;99.20;;;;;;5071408;28;20041;-85
2021/06/28 03:02:49;;;;;;;9.38;8.35;;;19.10;99.20;;;;;;5038668;28;20490;-86
2021/06/28 03:05:15;;;;;;;9.57;7.68;;;19.10;99.20;;;;;;5022363;28;20020;-86
2021/06/28 03:07:41;;;;;;;9.27;7.75;;;19.10;99.10;;;;;;5073239;28;20020;-85
2021/06/28 03:10:08;;;;;;;9.75;8.18;;;19.00;99.20;;;;;;5055302;28;20448;-85
2021/06/28 03:12:34;;;;;;;8.32;7.53;;;19.00;99.20;;;;;;5055249;28;20031;-85
2021/06/28 03:15:00;;;;;;;9.38;7.97;;;19.00;99.20;;;;;;5075839;28;20024;-85
2021/06/28 03:17:26;;;;;;;9.20;8.23;;;19.00;99.20;;;;;;5075718;28;20496;-85
2021/06/28 03:19:52;;;;;;;10.18;9.15;;;19.00;99.10;;;;;;5058827;28;20028;-85
2021/06/28 03:22:18;;;;;;;9.73;8.73;;;19.00;99.20;;;;;;5058615;28;20029;-85
2021/06/28 03:24:44;;;;;;;10.80;8.30;;;19.00;99.20;;;;;;5069774;28;20122;-85
2021/06/28 03:27:10;;;;;;;10.55;8.45;;;18.90;99.20;;;;;;5055261;28;20492;-85
2021/06/28 03:29:36;;;;;;;9.82;8.18;;;18.90;99.20;;;;;;5022393;28;20032;-86
2021/06/28 03:32:02;;;;;;;8.65;7.75;;;18.90;99.20;;;;;;5038647;28;20087;-85
2021/06/28 03:34:28;;;;;;;8.95;7.95;;;18.90;99.30;;;;;;5022406;28;20025;-85
2021/06/28 03:36:54;;;;;;;9.18;8.27;;;18.90;99.20;;;;;;5055184;28;20081;-85
2021/06/28 03:39:19;;;;;;;10.15;9.07;;;18.90;99.30;;;;;;5022638;28;20155;-85
2021/06/28 03:41:45;;;;;;;9.55;8.55;;;18.90;99.30;;;;;;5022623;28;20029;-85
2021/06/28 03:44:11;;;;;;;11.27;9.05;;;18.90;99.30;;;;;;5055036;28;20020;-85
2021/06/28 03:46:36;;;;;;;9.00;8.10;;;18.90;99.30;;;;;;5038593;28;20027;-86
2021/06/28 03:49:02;;;;;;;11.57;9.02;;;18.80;99.40;;;;;;5013435;28;20029;-86
2021/06/28 03:51:28;;;;;;;11.32;9.13;;;18.80;99.40;;;;;;5018759;28;20470;-85
2021/06/28 03:53:53;;;;;;;9.80;8.80;;;18.80;99.40;;;;;;5018959;28;20032;-86
2021/06/28 03:56:19;;;;;;;9.63;8.63;;;18.80;99.40;;;;;;5044331;28;20478;-85
2021/06/28 03:58:45;;;;;;;9.68;8.68;;;18.80;99.40;;;;;;5058577;28;20029;-86
2021/06/28 04:01:11;;;;;;;10.20;8.75;;;18.80;99.40;;;;;;5075134;28;20052;-85
2021/06/28 04:03:38;;;;;;;9.57;8.48;;;18.80;99.40;;;;;;5038806;28;20036;-85
2021/06/28 04:06:08;;;;;;;10.23;9.13;;;18.80;99.40;;;;;;5055212;28;20021;-85
2021/06/28 04:08:36;;;;;;;10.48;9.30;;;18.80;99.40;;;;;;5056697;28;20163;-85
2021/06/28 04:11:03;;;;;;;9.90;8.90;;;18.80;99.40;;;;;;5056079;28;20092;-85
2021/06/28 04:13:29;;;;;;;10.35;9.05;;;18.70;99.50;;;;;;5039062;28;20114;-86
2021/06/28 04:15:55;;;;;;;8.82;7.93;;;18.70;99.50;;;;;;5055893;28;20033;-85
2021/06/28 04:18:21;;;;;;;9.48;8.48;;;18.70;99.50;;;;;;5055558;28;20474;-85
2021/06/28 04:20:46;;;;;;;10.70;8.82;;;18.70;99.60;;;;;;5055811;28;20025;-85
2021/06/28 04:23:12;;;;;;;12.07;8.73;;;18.70;99.70;;;;;;5056110;28;20048;-85
2021/06/28 04:25:38;;;;;;;9.88;8.88;;;18.70;99.70;;;;;;5056703;28;20026;-85
2021/06/28 04:28:04;;;;;;;11.57;8.93;;;18.70;99.70;;;;;;5038408;28;20027;-86
2021/06/28 04:30:30;;;;;;;9.88;8.88;;;18.70;99.70;;;;;;5038862;28;20017;-85
2021/06/28 04:32:56;;;;;;;9.88;8.88;;;18.70;99.70;;;;;;5038334;28;20044;-85
2021/06/28 04:35:25;;;;;;;10.25;8.73;;;18.70;99.80;;;;;;5038514;28;20025;-85
2021/06/28 04:37:52;;;;;;;10.00;9.00;;;18.70;99.80;;;;;;5056399;28;20029;-85
2021/06/28 04:40:19;;;;;;;9.50;8.50;;;18.70;99.90;;;;;;5054649;28;20120;-86
2021/06/28 04:42:45;;;;;;;10.07;8.68;;;18.70;99.90;;;;;;5055930;28;20076;-85
2021/06/28 04:45:13;;;;;;;9.88;8.88;;;18.70;99.90;;;;;;5037983;28;20029;-85
2021/06/28 04:47:40;;;;;;;9.40;8.48;;;18.80;99.90;;;;;;5068848;28;20495;-85
2021/06/28 04:50:07;;;;;;;9.63;8.50;;;18.70;99.90;;;;;;5041650;28;20491;-85
2021/06/28 04:52:35;;;;;;;9.88;8.55;;;18.80;99.90;;;;;;5045703;28;20025;-85
2021/06/28 04:55:01;;;;;;;8.80;7.93;;;18.80;99.90;;;;;;5006266;28;20025;-85
2021/06/28 04:57:27;;;;;;;9.95;8.93;;;18.80;99.90;;;;;;5021548;28;20470;-86
2021/06/28 04:59:54;;;;;;;9.55;8.07;;;18.80;99.90;;;;;;5037758;28;20045;-85
2021/06/28 05:02:19;;;;;;;9.40;8.40;;;18.80;99.90;;;;;;5021339;28;20074;-85
2021/06/28 05:04:47;;;;;;;9.60;8.63;;;18.80;99.90;;;;;;5021149;28;20108;-86
2021/06/28 05:07:14;;;;;;;10.25;8.65;;;18.90;99.90;;;;;;5005437;28;20025;-85
2021/06/28 05:09:40;;;;;;;9.95;8.75;;;18.90;99.90;;;;;;5037638;28;20048;-85
2021/06/28 05:12:07;;;;;;;9.98;8.70;;;18.90;99.90;;;;;;5037639;28;20021;-85
2021/06/28 05:14:32;;;;;;;10.23;9.13;;;19.00;99.90;;;;;;5037585;28;20037;-85
2021/06/28 05:16:58;;;;;;;10.85;9.50;;;19.00;99.90;;;;;;5004809;28;20031;-85
2021/06/28 05:19:23;;;;;;;10.65;9.55;;;19.00;99.90;;;;;;5021093;28;20021;-85
2021/06/28 05:21:49;;;;;;;10.18;8.90;;;19.00;99.90;;;;;;5021127;28;20025;-85
2021/06/28 05:24:15;;;;;;;12.82;10.05;;;19.10;99.90;;;;;;5021380;28;20032;-85
2021/06/28 05:26:40;;;;;;;12.82;10.38;;;19.10;99.90;;;;;;5005702;28;20025;-84
2021/06/28 05:29:06;;;;;;;13.45;10.18;;;19.10;99.90;;;;;;5024088;28;20120;-85
2021/06/28 05:31:32;;;;;;;11.85;10.65;;;19.10;99.90;;;;;;5060776;28;20115;-85
2021/06/28 05:33:57;;;;;;;11.32;10.23;;;19.20;99.90;;;;;;5047160;28;20032;-85
2021/06/28 05:36:23;;;;;;;15.02;11.23;;;19.20;99.90;;;;;;5059459;28;20461;-85
2021/06/28 05:38:49;;;;;;;12.35;11.05;;;19.20;99.90;;;;;;5029167;28;20025;-85
2021/06/28 05:41:16;;;;;;;11.65;10.45;;;19.30;99.90;;;;;;5021591;28;20155;-84
2021/06/28 05:43:42;;;;;;;11.75;10.45;;;19.30;99.90;;;;;;5029666;28;20496;-84
2021/06/28 05:46:08;;;;;;;12.02;10.65;;;19.30;99.90;;;;;;5053664;28;20481;-84
2021/06/28 05:48:33;;;;;;;12.75;11.15;;;19.30;99.90;;;;;;5016324;28;20036;-84
2021/06/28 05:51:00;;;;;;;12.98;11.65;;;19.30;99.90;;;;;;5044216;28;20036;-85
2021/06/28 05:53:25;;;;;;;12.50;11.20;;;19.30;99.90;;;;;;5039033;28;20032;-84
2021/06/28 05:55:52;;;;;;;13.27;11.88;;;19.40;99.90;;;;;;5052877;28;20492;-84
2021/06/28 05:58:22;;;;;;;13.43;10.75;;;19.40;99.90;;;;;;5041567;28;20037;-85
2021/06/28 06:00:47;;;;;;;13.07;11.55;;;19.40;99.90;;;;;;5023918;28;20489;-84
2021/06/28 06:03:13;;;;;;;15.65;13.98;;;19.50;99.90;;;;;;5054578;28;20044;-84
2021/06/28 06:05:39;;;;;;;14.70;13.00;;;19.40;99.90;;;;;;5038022;28;20017;-83
2021/06/28 06:08:05;;;;;;;14.77;13.13;;;19.50;99.90;;;;;;5040906;28;20029;-84
2021/06/28 06:10:30;;;;;;;15.85;12.75;;;19.50;99.90;;;;;;5033680;28;20021;-85
2021/06/28 06:12:56;;;;;;;14.88;13.18;;;19.50;99.90;;;;;;5047198;28;20055;-84
2021/06/28 06:15:22;;;;;;;17.00;15.20;;;19.60;99.90;;;;;;5040515;28;20036;-85
2021/06/28 06:17:48;;;;;;;15.50;13.80;;;19.60;99.90;;;;;;5028553;28;20481;-85
2021/06/28 06:20:14;;;;;;;16.02;14.05;;;19.70;99.90;;;;;;5041589;28;20025;-85
2021/06/28 06:22:40;;;;;;;15.85;14.15;;;19.70;99.90;;;;;;5035071;28;20020;-85
2021/06/28 06:25:07;;;;;;;15.02;12.82;;;19.70;99.90;;;;;;5049256;28;20389;-85
2021/06/28 06:27:33;;;;;;;15.57;13.90;;;19.70;99.90;;;;;;5015699;28;20024;-85
2021/06/28 06:29:59;;;;;;;16.23;14.15;;;19.80;99.90;;;;;;5052824;28;20032;-85
2021/06/28 06:32:25;;;;;;;18.20;15.52;;;19.80;99.90;;;;;;5041707;28;20020;-85
2021/06/28 06:34:50;;;;;;;17.15;15.35;;;19.90;99.90;;;;;;5029948;28;20035;-85
2021/06/28 06:37:16;;;;;;;16.33;14.63;;;19.90;99.90;;;;;;5072310;28;20027;-85
2021/06/28 06:39:42;;;;;;;16.27;14.57;;;19.90;99.90;;;;;;5026241;28;20424;-85
2021/06/28 06:42:08;;;;;;;15.10;13.52;;;20.00;99.90;;;;;;5054179;28;20075;-85
2021/06/28 06:44:34;;;;;;;18.55;15.75;;;20.00;99.90;;;;;;5051150;28;20028;-85
2021/06/28 06:47:00;;;;;;;17.10;15.25;;;20.00;99.90;;;;;;5072561;28;20028;-83
2021/06/28 06:49:25;;;;;;;17.95;16.05;;;20.10;99.90;;;;;;5035334;28;20025;-85
2021/06/28 06:51:52;;;;;;;16.95;15.05;;;20.10;99.90;;;;;;5037846;28;20425;-85
2021/06/28 06:54:18;;;;;;;16.95;15.25;;;20.10;99.90;;;;;;5064570;28;20499;-85
2021/06/28 06:56:44;;;;;;;17.33;15.25;;;20.20;99.90;;;;;;5070167;28;20032;-85
2021/06/28 06:59:10;;;;;;;16.25;14.55;;;20.20;99.90;;;;;;5059890;28;20052;-85
2021/06/28 07:01:37;;;;;;;17.23;15.43;;;20.30;99.90;;;;;;5061484;28;20020;-86
2021/06/28 07:04:03;;;;;;;16.42;14.75;;;20.30;99.90;;;;;;5061516;28;20031;-84
2021/06/28 07:06:29;;;;;;;17.05;15.35;;;20.40;99.90;;;;;;5064922;28;20021;-85
2021/06/28 07:08:54;;;;;;;16.98;15.18;;;20.40;99.90;;;;;;5057722;28;20373;-85
2021/06/28 07:11:20;;;;;;;17.67;15.85;;;20.40;99.90;;;;;;5040529;28;20028;-85
2021/06/28 07:13:55;;;;;;;16.75;14.95;;;20.50;99.90;;;;;;5037022;28;20029;-85
2021/06/28 07:16:30;;;;;;;15.77;14.18;;;20.60;99.90;;;;;;5035351;28;20083;-81
2021/06/28 07:18:56;;;;;;;18.45;16.45;;;20.60;99.90;;;;;;5051956;28;20024;-81
2021/06/28 07:21:21;;;;;;;18.17;16.30;;;20.70;99.90;;;;;;5032231;28;20025;-81
2021/06/28 07:23:48;;;;;;;16.80;15.02;;;20.80;99.90;;;;;;5036062;28;20570;-82
2021/06/28 07:26:14;;;;;;;18.60;16.70;;;20.80;99.90;;;;;;5050603;28;20021;-81
2021/06/28 07:28:40;;;;;;;20.27;18.10;;;20.90;99.90;;;;;;5053104;28;20059;-81
2021/06/28 07:31:06;;;;;;;18.35;16.25;;;20.90;99.90;;;;;;5053660;28;20060;-81
2021/06/28 07:33:33;;;;;;;19.00;16.80;;;21.00;99.90;;;;;;5053569;28;20035;-81
2021/06/28 07:35:59;;;;;;;17.40;15.60;;;21.10;99.90;;;;;;5070592;28;20028;-81
2021/06/28 07:38:26;;;;;;;17.00;15.30;;;21.10;99.90;;;;;;5036521;28;20379;-81
2021/06/28 07:40:52;;;;;;;16.90;15.20;;;21.20;99.90;;;;;;5042702;28;20107;-81
2021/06/28 07:43:18;;;;;;;18.92;16.83;;;21.30;99.90;;;;;;5040267;28;20171;-81
2021/06/28 07:45:47;;;;;;;18.40;16.50;;;21.30;99.90;;;;;;5057394;28;20052;-80
2021/06/28 07:48:12;;;;;;;18.00;16.10;;;21.40;99.90;;;;;;5056560;28;20023;-80
2021/06/28 07:50:38;;;;;;;18.00;16.20;;;21.50;99.90;;;;;;5039270;28;20020;-81
2021/06/28 07:53:04;;;;;;;18.70;16.73;;;21.60;99.90;;;;;;5074825;28;20032;-79
2021/06/28 07:55:29;;;;;;;19.00;17.00;;;21.60;99.90;;;;;;5041340;28;20032;-80
2021/06/28 07:57:55;;;;;;;17.77;15.98;;;21.70;99.90;;;;;;5056895;28;20493;-80
2021/06/28 08:00:21;;;;;;;18.15;16.25;;;21.70;99.90;;;;;;5037462;28;20060;-80
2021/06/28 08:02:47;;;;;;;18.95;17.02;;;21.80;99.90;;;;;;5051407;28;20045;-80
2021/06/28 08:05:14;;;;;;;19.10;17.05;;;21.80;99.90;;;;;;5059376;28;20023;-80
2021/06/28 08:07:40;;;;;;;18.35;16.45;;;21.90;99.90;;;;;;5065432;28;20417;-86
2021/06/28 08:10:09;;;;;;;18.08;16.27;;;22.00;99.90;;;;;;5056912;28;20384;-87
2021/06/28 08:12:35;;;;;;;18.83;16.95;;;22.00;99.90;;;;;;5077428;28;20040;-89
2021/06/28 08:15:01;;;;;;;17.77;15.93;;;22.10;99.90;;;;;;5061938;28;20397;-89
2021/06/28 08:17:27;;;;;;;18.25;16.30;;;22.20;99.90;;;;;;5033914;28;20020;-89
2021/06/28 08:19:53;;;;;;;19.73;17.75;;;22.20;99.90;;;;;;5058297;28;20426;-89
2021/06/28 08:22:18;;;;;;;20.50;18.40;;;22.30;99.90;;;;;;5036386;28;20477;-89
2021/06/28 08:24:44;;;;;;;20.05;17.95;;;22.30;99.90;;;;;;5071170;28;20389;-89
2021/06/28 08:27:10;;;;;;;17.10;15.40;;;22.40;99.90;;;;;;5055773;28;20481;-89
2021/06/28 08:29:36;;;;;;;17.85;15.73;;;22.40;99.90;;;;;;5075201;28;20021;-89
2021/06/28 08:32:03;;;;;;;17.65;15.88;;;22.40;99.90;;;;;;5063773;28;20031;-89
2021/06/28 08:34:28;;;;;;;17.05;15.25;;;22.40;99.90;;;;;;5082266;28;20036;-90
2021/06/28 08:36:55;;;;;;;15.70;14.20;;;22.50;99.90;;;;;;5070594;28;20474;-90
2021/06/28 08:39:21;;;;;;;16.33;14.68;;;22.50;99.90;;;;;;5076565;28;20111;-90
2021/06/28 08:41:49;;;;;;;17.92;14.43;;;22.60;99.90;;;;;;5071165;28;20063;-90
2021/06/28 08:44:15;;;;;;;15.70;14.20;;;22.70;99.90;;;;;;5086586;28;20028;-89
2021/06/28 08:46:42;;;;;;;14.98;13.48;;;22.70;99.90;;;;;;5094282;28;20015;-90
2021/06/28 08:49:08;;;;;;;16.02;14.43;;;22.80;99.90;;;;;;5064723;28;20143;-89
2021/06/28 08:51:35;;;;;;;16.90;14.20;;;22.90;99.90;;;;;;5048038;28;20085;-89
2021/06/28 08:54:07;;;;;;;15.35;13.75;;;23.00;99.90;;;;;;5048857;28;20037;-89
2021/06/28 08:56:33;;;;;;;15.07;13.52;;;23.00;99.90;;;;;;5047379;28;20060;-90
2021/06/28 08:59:00;;;;;;;14.07;12.57;;;23.10;99.90;;;;;;5057225;23;20443;-87
2021/06/28 09:01:26;;;;;;;13.02;11.73;;;23.10;99.90;;;;;;5079443;28;20020;-87
2021/06/28 09:03:52;;;;;;;12.95;11.50;;;23.20;99.90;;;;;;5078899;28;20024;-87
2021/06/28 09:06:25;;;;;;;14.25;12.75;;;23.40;99.90;;;;;;5045143;28;20032;-87
2021/06/28 09:08:56;;;;;;;12.82;11.52;;;23.40;99.90;;;;;;5069679;28;20441;-87
2021/06/28 09:11:22;;;;;;;12.15;10.95;;;23.50;99.90;;;;;;5075900;28;20458;-87
2021/06/28 09:13:50;;;;;;;11.98;10.77;;;23.60;99.90;;;;;;5071491;28;20085;-87
2021/06/28 09:16:28;;;;;;;12.02;10.82;;;23.70;99.90;;;;;;5077403;28;20111;-87
2021/06/28 09:19:07;;;;;;;12.43;11.13;;;23.80;99.90;;;;;;5074469;28;20024;-87
2021/06/28 09:21:51;;;;;;;13.20;11.93;;;23.90;99.90;;;;;;5070764;28;20039;-87
2021/06/28 09:24:31;;;;;;;11.55;10.45;;;24.00;99.90;;;;;;5065388;28;20040;-88
2021/06/28 09:27:18;;;;;;;11.00;9.80;;;24.10;99.90;;;;;;5095344;28;20481;-87
2021/06/28 09:29:49;;;;;;;11.02;9.93;;;24.20;99.90;;;;;;5070973;28;20028;-87
2021/06/28 09:32:17;;;;;;;10.02;9.02;;;24.20;99.90;;;;;;5077816;28;20020;-86
2021/06/28 09:34:45;;;;;;;9.52;8.57;;;24.30;99.90;;;;;;5061194;28;20111;-87
2021/06/28 09:37:25;;;;;;;11.30;10.20;;;24.40;99.90;;;;;;5077253;28;20421;-82
2021/06/28 09:39:57;;;;;;;12.80;11.50;;;24.40;99.90;;;;;;5072158;28;20016;-82
2021/06/28 09:42:26;;;;;;;12.02;10.40;;;24.50;99.80;;;;;;5079480;28;20024;-83
2021/06/28 09:45:15;;;;;;;11.98;10.68;;;24.40;99.70;;;;;;5071079;28;20515;-82
2021/06/28 09:47:41;;;;;;;12.27;11.00;;;24.40;99.00;;;;;;5067017;28;20020;-82
2021/06/28 09:50:09;;;;;;;10.98;9.88;;;24.40;99.20;;;;;;5058372;28;20524;-83
2021/06/28 09:52:37;;;;;;;10.93;9.82;;;24.40;99.10;;;;;;5065790;28;20028;-83
2021/06/28 09:55:18;;;;;;;11.10;10.00;;;24.40;98.80;;;;;;5068130;28;20024;-82
2021/06/28 09:58:24;;;;;;;11.57;10.48;;;24.30;98.50;;;;;;5073849;28;20024;-82
2021/06/28 10:00:56;;;;;;;11.40;10.30;;;24.30;97.90;;;;;;5088898;28;20481;-82
2021/06/28 10:03:35;;;;;;;11.40;10.25;;;24.30;98.50;;;;;;5072740;28;20122;-83
2021/06/28 10:08:45;;;;;;;12.20;11.00;;;24.30;98.30;;;;;;5091310;28;20055;-82
2021/06/28 10:11:15;;;;;;;11.82;10.63;;;24.30;98.40;;;;;;5074865;28;20231;-82
2021/06/28 10:13:41;;;;;;;11.80;10.60;;;24.30;98.20;;;;;;5074402;28;20150;-81
2021/06/28 10:16:08;;;;;;;11.55;10.38;;;24.20;98.60;;;;;;5074753;28;20024;-81
2021/06/28 10:18:34;;;;;;;10.43;9.43;;;24.30;98.30;;;;;;5074983;28;20020;-80
2021/06/28 10:21:01;;;;;;;11.07;9.95;;;24.30;98.00;;;;;;5054558;28;20036;-81
2021/06/28 10:23:26;;;;;;;10.80;9.70;;;24.20;97.60;;;;;;5041379;28;20391;-81
2021/06/28 10:25:52;;;;;;;10.57;9.48;;;24.20;97.30;;;;;;5031119;28;20051;-81
2021/06/28 10:28:19;;;;;;;11.10;10.00;;;24.20;97.30;;;;;;5056641;28;20131;-81
2021/06/28 10:30:45;;;;;;;11.25;9.90;;;24.10;97.10;;;;;;5073714;28;20022;-81
2021/06/28 10:33:13;;;;;;;11.20;9.95;;;24.20;97.50;;;;;;5091576;28;20024;-81
2021/06/28 10:35:41;;;;;;;11.25;10.10;;;24.20;97.20;;;;;;5074593;28;20111;-81
2021/06/28 10:38:10;;;;;;;11.00;9.85;;;24.20;97.00;;;;;;5088237;28;20480;-82
2021/06/28 10:40:43;;;;;;;12.07;10.82;;;24.20;97.00;;;;;;5070731;28;20028;-81
2021/06/28 10:43:31;;;;;;;10.43;9.35;;;24.20;96.10;;;;;;5088111;28;20043;-81
2021/06/28 10:45:58;;;;;;;10.60;9.52;;;24.20;96.20;;;;;;5081598;28;20039;-82
2021/06/28 10:48:28;;;;;;;11.00;9.98;;;24.20;96.80;;;;;;5038324;28;20020;-82
2021/06/28 10:51:02;;;;;;;10.85;9.85;;;24.20;96.90;;;;;;5068577;28;20051;-82
2021/06/28 10:53:33;;;;;;;11.30;10.10;;;24.20;96.80;;;;;;5077781;28;20024;-82
2021/06/28 10:56:30;;;;;;;13.38;10.68;;;24.20;96.90;;;;;;5071196;28;20034;-82
2021/06/28 10:59:02;;;;;;;12.23;11.02;;;24.20;96.20;;;;;;5063780;28;20053;-82
2021/06/28 11:01:35;;;;;;;11.70;10.13;;;24.20;95.80;;;;;;5050076;28;20035;-82
2021/06/28 11:04:24;;;;;;;10.52;9.43;;;24.20;96.30;;;;;;5057709;28;20044;-81
2021/06/28 11:06:52;;;;;;;12.18;10.85;;;24.20;96.10;;;;;;5057153;28;20032;-82
2021/06/28 11:09:40;;;;;;;12.27;10.98;;;24.20;96.70;;;;;;5045938;28;20123;-82
2021/06/28 11:12:21;;;;;;;13.00;11.70;;;24.20;96.60;;;;;;5049261;28;20029;-82
2021/06/28 11:15:23;;;;;;;13.70;12.30;;;24.20;96.00;;;;;;5050817;28;20029;-82
2021/06/28 11:17:56;;;;;;;13.45;11.88;;;24.20;95.80;;;;;;5045082;28;20048;-83
2021/06/28 11:20:39;;;;;;;13.20;11.85;;;24.20;96.80;;;;;;5043236;28;20029;-83
2021/06/28 11:23:07;;;;;;;12.10;10.90;;;24.20;96.40;;;;;;5064699;28;20550;-84
2021/06/28 11:25:39;;;;;;;12.85;11.43;;;24.20;96.90;;;;;;5061858;28;20012;-83
2021/06/28 11:28:05;;;;;;;12.07;10.88;;;24.20;97.10;;;;;;5062450;28;20454;-84
2021/06/28 11:30:37;;;;;;;13.10;11.80;;;24.20;97.00;;;;;;5062762;28;20150;-83
2021/06/28 11:33:06;;;;;;;13.18;11.88;;;24.30;97.00;;;;;;5038313;28;20033;-83
2021/06/28 11:35:39;;;;;;;14.23;12.80;;;24.30;96.90;;;;;;5071655;28;20484;-82
2021/06/28 11:38:37;;;;;;;13.68;12.27;;;24.30;96.80;;;;;;5046622;28;20500;-82
2021/06/28 11:41:15;;;;;;;12.98;11.73;;;24.30;96.80;;;;;;5053475;28;20090;-82
2021/06/28 11:43:57;;;;;;;12.55;11.02;;;24.30;97.00;;;;;;5053784;28;20488;-82
2021/06/28 11:46:32;;;;;;;12.85;11.57;;;24.30;97.10;;;;;;5059322;28;20025;-83
2021/06/28 11:49:03;;;;;;;11.93;10.73;;;24.30;97.20;;;;;;5069288;28;20016;-81
2021/06/28 11:51:43;;;;;;;12.13;10.93;;;24.40;97.50;;;;;;5055821;28;20025;-81
2021/06/28 11:54:15;;;;;;;12.50;11.18;;;24.40;97.50;;;;;;5066933;28;20020;-83
2021/06/28 11:56:44;;;;;;;12.75;11.45;;;24.50;97.30;;;;;;5056791;28;20055;-82
2021/06/28 11:59:12;;;;;;;13.13;10.70;;;24.50;97.20;;;;;;5069506;28;20071;-82
2021/06/28 12:01:50;;;;;;;12.18;10.90;;;24.50;97.60;;;;;;5064999;28;20063;-83
2021/06/28 12:04:21;;;;;;;12.20;11.00;;;24.50;97.50;;;;;;5071150;28;20044;-83
2021/06/28 12:06:47;;;;;;;;;;;24.50;97.40;;;;;;5059363;28;20067;-82
2021/06/28 12:09:24;;;;;;;12.68;11.43;;;24.50;97.10;;;;;;5084116;28;19904;-83
2021/06/28 12:11:54;;;;;;;12.85;11.60;;;24.50;97.50;;;;;;5087816;28;20021;-83
2021/06/28 12:14:53;;;;;;;13.13;11.88;;;24.50;97.20;;;;;;5073047;28;20027;-83
2021/06/28 12:17:30;;;;;;;12.43;11.13;;;24.50;96.60;;;;;;5017341;28;20033;-83
2021/06/28 12:20:00;;;;;;;12.52;11.23;;;24.50;97.00;;;;;;5075613;28;20500;-83
2021/06/28 12:22:28;;;;;;;;;;;24.50;97.20;;;;;;5076590;28;20112;-83
2021/06/28 12:25:04;;;;;;;11.73;10.52;;;24.60;97.00;;;;;;5090796;28;19908;-83
2021/06/28 12:27:32;;;;;;;12.23;10.98;;;24.60;97.20;;;;;;5093071;28;20384;-83
2021/06/28 12:29:59;;;;;;;12.32;11.02;;;24.60;97.50;;;;;;5081434;28;20040;-83
2021/06/28 12:32:29;;;;;;;13.43;12.00;;;24.60;97.60;;;;;;5054769;28;20118;-82
2021/06/28 12:34:56;;;;;;;;;;;24.60;97.40;;;;;;5075722;28;20028;-83
2021/06/28 12:37:30;;;;;;;12.07;10.20;;;24.60;96.90;;;;;;5090427;28;19904;-83
2021/06/28 12:40:14;;;;;;;12.43;11.18;;;24.60;97.40;;;;;;5075563;28;20382;-83
2021/06/28 12:42:50;;;;;;;12.85;11.57;;;24.60;97.20;;;;;;5093016;28;20020;-82
2021/06/28 12:45:22;;;;;;;12.95;11.57;;;24.60;97.30;;;;;;5084717;28;20087;-83
2021/06/28 12:47:51;;;;;;;12.93;11.63;;;24.60;97.50;;;;;;5080659;28;20021;-89